Time;durP1;ratioP1;P1;durP2;ratioP2;P2;SDS_P1;SDS_P2;PMS_P1;PMS_P2;Temp;Humidity;BMP_temperature;BMP_pressure;BME280_temperature;BME280_humidity;BME280_pressure;Samples;Min_cycle;Max_cycle;Signal;HPM_P1;HPM_P2
2023/06/30 00:00:30;;;;;;;;;;;;;;;14.22;100.00;101510.09;5039022;28;20414;-71
2023/06/30 00:02:56;;;;;;;;;;;;;;;14.19;100.00;101522.38;5062454;28;19923;-71
2023/06/30 00:05:21;;;;;;;;;;;;;;;14.15;100.00;101521.03;5059281;28;20046;-71
2023/06/30 00:07:47;;;;;;;;;;;;;;;14.09;100.00;101513.59;5065299;28;19912;-71
2023/06/30 00:10:12;;;;;;;;;;;;;;;14.10;100.00;101514.47;5056824;28;20346;-70
2023/06/30 00:12:37;;;;;;;;;;;;;;;14.12;100.00;101515.09;5042311;28;19916;-71
2023/06/30 00:15:03;;;;;;;;;;;;;;;14.02;100.00;101509.09;5056507;28;20063;-71
2023/06/30 00:17:28;;;;;;;;;;;;;;;14.05;100.00;101508.72;5060888;28;19931;-71
2023/06/30 00:19:57;;;;;;;;;;;;;;;14.02;100.00;101512.72;5056360;28;19920;-71
2023/06/30 00:22:23;;;;;;;;;;;;;;;13.99;100.00;101499.34;5046543;28;19912;-71
2023/06/30 00:24:58;;;;;;;;;;;;;;;13.93;100.00;101504.81;5059903;28;20281;-72
2023/06/30 00:27:24;;;;;;;;;;;;;;;13.86;100.00;101498.41;5041644;28;19935;-73
2023/06/30 00:29:49;;;;;;;;;;;;;;;13.86;100.00;101503.91;5059335;28;19913;-71
2023/06/30 00:32:14;;;;;;;;;;;;;;;13.85;100.00;101496.72;5039530;28;20391;-71
2023/06/30 00:34:40;;;;;;;;;;;;;;;13.77;100.00;101489.47;5058467;28;19999;-70
2023/06/30 00:37:05;;;;;;;;;;;;;;;13.76;100.00;101493.28;5057955;28;19934;-70
2023/06/30 00:39:30;;;;;;;;;;;;;;;13.72;100.00;101491.97;5056461;28;19951;-71
2023/06/30 00:41:56;;;;;;;;;;;;;;;13.67;100.00;101490.88;5055673;28;19912;-70
2023/06/30 00:44:21;;;;;;;;;;;;;;;13.58;100.00;101489.34;5036686;28;20006;-70
2023/06/30 00:46:46;;;;;;;;;;;;;;;13.57;100.00;101494.00;5060251;28;19916;-70
2023/06/30 00:49:12;;;;;;;;;;;;;;;13.52;100.00;101491.00;5057636;28;19918;-70
2023/06/30 00:51:37;;;;;;;;;;;;;;;13.58;100.00;101495.69;5041404;28;19996;-70
2023/06/30 00:54:02;;;;;;;;;;;;;;;13.47;100.00;101492.63;5023524;28;19916;-71
2023/06/30 00:56:28;;;;;;;;;;;;;;;13.47;100.00;101496.25;5060234;28;20371;-71
2023/06/30 00:58:53;;;;;;;;;;;;;;;13.47;100.00;101492.63;5041358;28;19958;-71
2023/06/30 01:01:31;;;;;;;;;;;;;;;13.45;100.00;101500.25;5059492;28;19912;-71
2023/06/30 01:04:02;;;;;;;;;;;;;;;13.37;100.00;101494.88;5041129;28;19924;-70
2023/06/30 01:06:30;;;;;;;;;;;;;;;13.33;100.00;101488.06;5060129;28;20371;-70
2023/06/30 01:09:00;;;;;;;;;;;;;;;13.32;100.00;101494.63;5030510;28;19916;-71
2023/06/30 01:11:26;;;;;;;;;;;;;;;13.40;100.00;101492.59;5041804;28;19912;-71
2023/06/30 01:13:53;;;;;;;;;;;;;;;13.40;100.00;101494.50;5054595;28;19963;-71
2023/06/30 01:16:20;;;;;;;;;;;;;;;13.39;100.00;101492.81;5058074;28;19912;-71
2023/06/30 01:18:47;;;;;;;;;;;;;;;13.44;100.00;101498.56;5059021;28;20001;-71
2023/06/30 01:21:13;;;;;;;;;;;;;;;13.38;100.00;101494.69;5060445;28;19938;-71
2023/06/30 01:23:51;;;;;;;;;;;;;;;13.35;100.00;101494.25;5031536;28;20364;-71
2023/06/30 01:26:18;;;;;;;;;;;;;;;13.34;100.00;101495.31;5055596;28;20327;-71
2023/06/30 01:28:43;;;;;;;;;;;;;;;13.34;100.00;101498.06;5037691;28;19917;-70
2023/06/30 01:31:09;;;;;;;;;;;;;;;13.30;100.00;101494.81;5040998;28;19919;-70
2023/06/30 01:33:37;;;;;;;;;;;;;;;13.27;100.00;101497.13;5058048;28;19913;-70
2023/06/30 01:36:03;;;;;;;;;;;;;;;13.21;100.00;101493.28;5057784;28;20419;-71
2023/06/30 01:38:28;;;;;;;;;;;;;;;13.19;100.00;101492.63;5037513;28;19960;-71
2023/06/30 01:40:54;;;;;;;;;;;;;;;13.16;100.00;101494.91;5059518;28;19962;-69
2023/06/30 01:43:20;;;;;;;;;;;;;;;13.17;100.00;101497.47;5059362;28;19921;-70
2023/06/30 01:45:45;;;;;;;;;;;;;;;13.15;100.00;101484.97;5043403;28;20254;-70
2023/06/30 01:48:11;;;;;;;;;;;;;;;13.13;100.00;101489.84;5035800;28;19921;-71
2023/06/30 01:50:37;;;;;;;;;;;;;;;13.06;100.00;101489.75;5036364;28;19999;-70
2023/06/30 01:53:02;;;;;;;;;;;;;;;13.01;100.00;101475.75;5019966;28;19921;-69
2023/06/30 01:55:28;;;;;;;;;;;;;;;12.98;100.00;101484.38;5038995;28;19919;-70
2023/06/30 01:57:55;;;;;;;;;;;;;;;12.91;100.00;101479.88;5039587;28;19974;-70
2023/06/30 02:00:20;;;;;;;;;;;;;;;12.87;100.00;101484.03;5040564;28;19920;-70
2023/06/30 02:02:46;;;;;;;;;;;;;;;12.89;100.00;101477.31;5039268;28;19975;-71
2023/06/30 02:05:12;;;;;;;;;;;;;;;12.89;100.00;101477.31;5018438;28;19924;-71
2023/06/30 02:07:37;;;;;;;;;;;;;;;12.89;100.00;101480.06;5042139;28;19913;-71
2023/06/30 02:10:02;;;;;;;;;;;;;;;12.88;100.00;101474.75;5038154;28;19913;-69
2023/06/30 02:12:28;;;;;;;;;;;;;;;12.80;100.00;101483.97;5038628;28;19912;-72
2023/06/30 02:14:54;;;;;;;;;;;;;;;12.79;100.00;101473.16;5029335;28;19920;-70
2023/06/30 02:17:31;;;;;;;;;;;;;;;12.76;100.00;101470.81;5029254;28;20006;-71
2023/06/30 02:19:57;;;;;;;;;;;;;;;12.70;100.00;101472.44;5036647;28;20299;-71
2023/06/30 02:22:22;;;;;;;;;;;;;;;12.66;100.00;101470.28;5038337;28;19913;-70
2023/06/30 02:24:48;;;;;;;;;;;;;;;12.68;100.00;101470.94;5038757;28;20376;-71
2023/06/30 02:27:13;;;;;;;;;;;;;;;12.63;100.00;101466.03;5036082;28;19923;-71
2023/06/30 02:29:39;;;;;;;;;;;;;;;12.62;100.00;101463.47;5039703;28;20283;-73
2023/06/30 02:32:04;;;;;;;;;;;;;;;12.58;100.00;101462.16;5036148;28;19913;-73
2023/06/30 02:34:30;;;;;;;;;;;;;;;12.53;100.00;101461.88;5038096;28;20156;-71
2023/06/30 02:36:55;;;;;;;;;;;;;;;12.55;100.00;101463.41;5038779;28;19912;-72
2023/06/30 02:39:20;;;;;;;;;;;;;;;12.54;100.00;101466.38;5037388;28;19967;-71
2023/06/30 02:41:45;;;;;;;;;;;;;;;12.49;100.00;101463.34;5035462;28;19912;-71
2023/06/30 02:44:11;;;;;;;;;;;;;;;12.49;100.00;101468.84;5034918;28;19921;-71
2023/06/30 02:46:37;;;;;;;;;;;;;;;12.41;100.00;101471.69;5042199;28;19920;-71
2023/06/30 02:49:02;;;;;;;;;;;;;;;12.42;100.00;101470.63;5039008;28;19979;-71
2023/06/30 02:51:27;;;;;;;;;;;;;;;12.40;100.00;101473.59;5060322;28;19913;-71
2023/06/30 02:53:53;;;;;;;;;;;;;;;12.35;100.00;101476.09;5048613;28;20004;-71
2023/06/30 02:56:18;;;;;;;;;;;;;;;12.34;100.00;101477.09;5060757;28;19912;-72
2023/06/30 02:58:43;;;;;;;;;;;;;;;12.33;100.00;101483.66;5042398;28;20725;-72
2023/06/30 03:01:09;;;;;;;;;;;;;;;12.33;100.00;101485.56;5056411;28;20003;-72
2023/06/30 03:03:34;;;;;;;;;;;;;;;12.27;100.00;101478.09;5041498;28;19924;-72
2023/06/30 03:05:59;;;;;;;;;;;;;;;12.27;100.00;101481.69;5041839;28;20807;-72
2023/06/30 03:08:24;;;;;;;;;;;;;;;12.23;100.00;101482.25;5042548;28;20007;-72
2023/06/30 03:10:50;;;;;;;;;;;;;;;12.15;100.00;101482.34;5062178;28;19920;-72
2023/06/30 03:13:15;;;;;;;;;;;;;;;12.16;100.00;101484.09;5060219;28;19920;-71
2023/06/30 03:15:40;;;;;;;;;;;;;;;12.13;100.00;101482.56;5043727;28;19920;-71
2023/06/30 03:18:05;;;;;;;;;;;;;;;12.10;100.00;101471.97;5046137;28;19912;-71
2023/06/30 03:20:31;;;;;;;;;;;;;;;12.13;100.00;101473.47;5062450;28;19916;-71
2023/06/30 03:22:57;;;;;;;;;;;;;;;12.09;100.00;101477.63;5053279;28;19920;-71
2023/06/30 03:25:22;;;;;;;;;;;;;;;12.09;100.00;101470.25;5061933;28;19924;-71
2023/06/30 03:27:48;;;;;;;;;;;;;;;12.08;100.00;101468.56;5057220;28;20062;-71
2023/06/30 03:30:13;;;;;;;;;;;;;;;12.05;100.00;101468.06;5056238;28;19912;-71
2023/06/30 03:32:39;;;;;;;;;;;;;;;12.08;100.00;101470.44;5042044;28;19932;-71
2023/06/30 03:35:04;;;;;;;;;;;;;;;12.04;100.00;101472.72;5038692;28;20043;-71
2023/06/30 03:37:30;;;;;;;;;;;;;;;12.08;100.00;101467.69;5060373;28;20482;-72
2023/06/30 03:39:56;;;;;;;;;;;;;;;12.00;100.00;101468.66;5055291;28;19912;-72
2023/06/30 03:42:21;;;;;;;;;;;;;;;12.00;100.00;101467.81;5062813;28;20414;-72
2023/06/30 03:44:47;;;;;;;;;;;;;;;12.01;100.00;101473.09;5042862;28;19987;-72
2023/06/30 03:47:12;;;;;;;;;;;;;;;12.02;100.00;101468.47;5055176;28;19935;-71
2023/06/30 03:49:39;;;;;;;;;;;;;;;12.06;100.00;101472.53;5060365;28;20015;-72
2023/06/30 03:52:04;;;;;;;;;;;;;;;12.06;100.00;101467.06;5044643;28;19912;-72
2023/06/30 03:54:29;;;;;;;;;;;;;;;12.08;100.00;101464.97;5057793;28;19990;-73
2023/06/30 03:56:57;;;;;;;;;;;;;;;12.10;100.00;101471.09;5063452;28;19923;-72
2023/06/30 03:59:22;;;;;;;;;;;;;;;12.09;100.00;101469.41;5058135;28;20438;-72
2023/06/30 04:01:50;;;;;;;;;;;;;;;12.13;100.00;101468.84;5061362;28;19928;-72
2023/06/30 04:04:16;;;;;;;;;;;;;;;12.12;100.00;101472.59;5037138;28;19974;-72
2023/06/30 04:06:42;;;;;;;;;;;;;;;12.18;100.00;101463.59;5060027;28;19971;-73
2023/06/30 04:09:07;;;;;;;;;;;;;;;12.18;100.00;101471.00;5037902;28;19913;-71
2023/06/30 04:11:33;;;;;;;;;;;;;;;12.20;100.00;101467.03;5065418;28;19971;-72
2023/06/30 04:14:01;;;;;;;;;;;;;;;12.26;100.00;101474.50;5059288;28;19916;-72
2023/06/30 04:16:27;;;;;;;;;;;;;;;12.29;100.00;101463.13;5025581;28;20360;-72
2023/06/30 04:18:55;;;;;;;;;;;;;;;12.34;100.00;101468.84;5041070;28;19916;-71
2023/06/30 04:21:21;;;;;;;;;;;;;;;12.38;100.00;101464.69;5061134;28;20341;-72
2023/06/30 04:23:46;;;;;;;;;;;;;;;12.43;100.00;101469.63;5033343;28;19925;-73
2023/06/30 04:26:11;;;;;;;;;;;;;;;12.40;100.00;101459.00;5042381;28;20319;-72
2023/06/30 04:28:37;;;;;;;;;;;;;;;12.51;100.00;101461.25;5042530;28;19916;-72
2023/06/30 04:31:04;;;;;;;;;;;;;;;12.55;100.00;101463.41;5056882;28;19948;-73
2023/06/30 04:33:29;;;;;;;;;;;;;;;12.61;100.00;101461.78;5053129;28;19912;-72
2023/06/30 04:35:55;;;;;;;;;;;;;;;12.66;100.00;101459.28;5043087;28;19919;-72
2023/06/30 04:38:20;;;;;;;;;;;;;;;12.73;100.00;101462.94;5053821;28;19943;-72
2023/06/30 04:40:48;;;;;;;;;;;;;;;12.84;100.00;101460.53;5055312;28;19912;-72
2023/06/30 04:43:14;;;;;;;;;;;;;;;12.90;100.00;101462.50;5053178;28;19920;-72
2023/06/30 04:45:39;;;;;;;;;;;;;;;13.00;100.00;101456.69;5058485;28;19919;-72
2023/06/30 04:48:05;;;;;;;;;;;;;;;13.12;100.00;101460.63;5057643;28;19916;-72
2023/06/30 04:50:30;;;;;;;;;;;;;;;13.23;100.00;101462.84;5042469;28;20004;-72
2023/06/30 04:52:55;;;;;;;;;;;;;;;13.36;100.00;101460.16;5059250;28;19913;-72
2023/06/30 04:55:20;;;;;;;;;;;;;;;13.46;100.00;101464.25;5059580;28;20292;-72
2023/06/30 04:57:46;;;;;;;;;;;;;;;13.67;100.00;101460.59;5040915;28;20638;-72
2023/06/30 05:00:11;;;;;;;;;;;;;;;13.77;100.00;101467.44;5048151;28;19916;-73
2023/06/30 05:02:37;;;;;;;;;;;;;;;13.90;100.00;101461.16;5027392;28;19921;-72
2023/06/30 05:05:02;;;;;;;;;;;;;;;14.02;100.00;101463.13;5054170;28;19912;-71
2023/06/30 05:07:27;;;;;;;;;;;;;;;14.16;100.00;101462.16;5038478;28;20442;-71
2023/06/30 05:09:53;;;;;;;;;;;;;;;14.32;100.00;101456.31;5056228;28;20023;-72
2023/06/30 05:12:18;;;;;;;;;;;;;;;14.47;100.00;101464.41;5056435;28;19913;-72
2023/06/30 05:14:43;;;;;;;;;;;;;;;14.82;100.00;101469.56;5049509;28;20272;-72
2023/06/30 05:17:08;;;;;;;;;;;;;;;15.58;100.00;101468.16;5059865;28;19913;-72
2023/06/30 05:19:34;;;;;;;;;;;;;;;16.62;95.77;101459.50;5054764;28;19916;-72
2023/06/30 05:21:59;;;;;;;;;;;;;;;17.57;91.34;101465.59;5045482;28;19908;-72
2023/06/30 05:24:24;;;;;;;;;;;;;;;18.60;84.64;101469.13;5048281;28;20280;-71
2023/06/30 05:26:50;;;;;;;;;;;;;;;19.33;80.97;101472.50;5054287;28;19966;-71
2023/06/30 05:29:15;;;;;;;;;;;;;;;19.41;79.11;101472.16;5056049;28;20307;-71
2023/06/30 05:31:40;;;;;;;;;;;;;;;20.12;73.63;101481.13;5057315;28;19916;-71
2023/06/30 05:34:06;;;;;;;;;;;;;;;20.22;71.62;101473.84;5051835;28;19913;-71
2023/06/30 05:36:31;;;;;;;;;;;;;;;20.49;70.76;101475.00;5051295;28;19919;-71
2023/06/30 05:38:56;;;;;;;;;;;;;;;20.93;69.88;101467.84;5053320;28;19966;-71
2023/06/30 05:41:22;;;;;;;;;;;;;;;21.01;69.52;101475.75;5059234;28;19916;-71
2023/06/30 05:43:47;;;;;;;;;;;;;;;21.05;68.53;101474.19;5038032;28;19921;-72
2023/06/30 05:46:12;;;;;;;;;;;;;;;21.54;65.78;101474.22;5052260;28;19959;-72
2023/06/30 05:48:37;;;;;;;;;;;;;;;21.57;66.15;101470.94;5056653;28;19921;-72
2023/06/30 05:51:03;;;;;;;;;;;;;;;21.64;66.33;101462.38;5062731;28;20322;-71
2023/06/30 05:53:28;;;;;;;;;;;;;;;21.82;67.13;101462.97;5051887;28;19913;-72
2023/06/30 05:55:55;;;;;;;;;;;;;;;22.09;61.81;101477.91;5055523;28;19913;-71
2023/06/30 05:58:20;;;;;;;;;;;;;;;22.83;59.52;101477.22;5046388;28;19916;-72
2023/06/30 06:00:46;;;;;;;;;;;;;;;22.82;59.13;101485.84;5059775;28;19912;-71
2023/06/30 06:03:11;;;;;;;;;;;;;;;23.02;58.88;101488.88;5054573;28;20404;-71
2023/06/30 06:05:36;;;;;;;;;;;;;;;23.15;59.42;101485.69;5038023;28;19912;-70
2023/06/30 06:08:01;;;;;;;;;;;;;;;23.14;58.52;101479.22;5054404;28;19913;-72
2023/06/30 06:10:28;;;;;;;;;;;;;;;23.27;56.60;101486.38;5057725;28;20292;-71
2023/06/30 06:12:53;;;;;;;;;;;;;;;23.59;55.78;101490.84;5034065;28;19924;-70
2023/06/30 06:15:18;;;;;;;;;;;;;;;23.45;57.01;101486.84;5055018;28;19913;-70
2023/06/30 06:17:43;;;;;;;;;;;;;;;23.32;56.32;101487.25;5057532;28;19922;-70
2023/06/30 06:20:09;;;;;;;;;;;;;;;23.49;55.16;101493.59;5057822;28;20001;-71
2023/06/30 06:22:34;;;;;;;;;;;;;;;23.46;55.02;101485.72;5055181;28;20391;-71
2023/06/30 06:24:59;;;;;;;;;;;;;;;23.95;53.42;101486.44;5054076;28;20344;-70
2023/06/30 06:27:25;;;;;;;;;;;;;;;24.03;53.47;101488.72;5056329;28;20394;-71
2023/06/30 06:29:50;;;;;;;;;;;;;;;23.97;53.50;101489.78;5052281;28;19920;-71
2023/06/30 06:32:18;;;;;;;;;;;;;;;24.15;53.08;101486.53;5052858;28;20445;-70
2023/06/30 06:34:44;;;;;;;;;;;;;;;23.85;54.54;101491.91;5042732;28;20410;-71
2023/06/30 06:37:09;;;;;;;;;;;;;;;23.99;54.02;101498.75;5043388;28;19912;-70
2023/06/30 06:39:34;;;;;;;;;;;;;;;24.16;52.73;101488.25;5044210;28;19920;-71
2023/06/30 06:41:59;;;;;;;;;;;;;;;24.00;53.46;101495.69;5053356;28;19920;-70
2023/06/30 06:44:25;;;;;;;;;;;;;;;24.39;51.64;101494.22;5052136;28;20023;-70
2023/06/30 06:47:10;;;;;;;;;;;;;;;24.49;50.95;101493.47;5043447;28;20011;-70
2023/06/30 06:49:35;;;;;;;;;;;;;;;24.86;48.89;101491.41;5045729;28;20016;-71
2023/06/30 06:52:00;;;;;;;;;;;;;;;24.66;48.05;101492.16;5029950;28;20007;-70
2023/06/30 06:54:25;;;;;;;;;;;;;;;24.71;47.47;101488.53;5028177;28;20050;-71
2023/06/30 06:56:52;;;;;;;;;;;;;;;24.78;49.04;101495.56;5057164;28;20391;-70
2023/06/30 06:59:18;;;;;;;;;;;;;;;25.13;47.76;101500.44;5056813;28;19912;-70
2023/06/30 07:01:43;;;;;;;;;;;;;;;24.98;48.11;101492.00;5053694;28;20273;-70
2023/06/30 07:04:08;;;;;;;;;;;;;;;24.77;48.86;101491.09;5059055;28;19924;-70
2023/06/30 07:06:33;;;;;;;;;;;;;;;24.66;49.38;101492.16;5059670;28;20395;-70
2023/06/30 07:08:59;;;;;;;;;;;;;;;24.76;47.74;101483.78;5058419;28;20291;-70
2023/06/30 07:11:24;;;;;;;;;;;;;;;25.04;46.86;101488.06;5061463;28;19982;-71
2023/06/30 07:13:49;;;;;;;;;;;;;;;24.92;46.50;101490.28;5058473;28;19913;-73
2023/06/30 07:16:17;;;;;;;;;;;;;;;25.11;45.64;101485.84;5059810;28;19912;-70
2023/06/30 07:18:43;;;;;;;;;;;;;;;24.99;44.37;101480.50;5061885;28;19933;-70
2023/06/30 07:21:08;;;;;;;;;;;;;;;25.02;43.30;101490.31;5053421;28;20007;-70
2023/06/30 07:23:33;;;;;;;;;;;;;;;24.89;43.38;101490.84;5058986;28;20454;-70
2023/06/30 07:25:58;;;;;;;;;;;;;;;25.04;45.98;101486.13;5054710;28;19912;-70
2023/06/30 07:28:24;;;;;;;;;;;;;;;25.22;45.36;101484.72;5061773;28;19950;-70
2023/06/30 07:30:49;;;;;;;;;;;;;;;25.01;45.72;101483.84;5053856;28;19923;-70
2023/06/30 07:33:14;;;;;;;;;;;;;;;25.21;47.08;101486.72;5033476;28;20264;-70
2023/06/30 07:35:40;;;;;;;;;;;;;;;25.08;46.96;101492.00;5057616;28;19983;-70
2023/06/30 07:38:05;;;;;;;;;;;;;;;24.64;46.13;101490.75;5032761;28;19913;-70
2023/06/30 07:40:30;;;;;;;;;;;;;;;24.67;46.66;101498.59;5049948;28;20449;-70
2023/06/30 07:42:55;;;;;;;;;;;;;;;24.96;44.57;101488.63;5045440;28;19958;-70
2023/06/30 07:45:21;;;;;;;;;;;;;;;24.57;46.37;101490.13;5035845;28;19917;-72
2023/06/30 07:47:47;;;;;;;;;;;;;;;24.89;45.48;101488.03;5061115;28;19920;-73
2023/06/30 07:50:13;;;;;;;;;;;;;;;24.53;45.27;101494.56;5059186;28;19912;-70
2023/06/30 07:52:50;;;;;;;;;;;;;;;24.75;45.64;101479.28;5060101;28;20015;-71
2023/06/30 07:55:16;;;;;;;;;;;;;;;24.21;46.53;101479.84;5053296;28;20395;-72
2023/06/30 07:57:42;;;;;;;;;;;;;;;24.39;47.79;101477.41;5053498;28;19951;-71
2023/06/30 08:00:07;;;;;;;;;;;;;;;24.32;46.37;101479.63;5047456;28;19967;-70
2023/06/30 08:02:32;;;;;;;;;;;;;;;24.35;46.49;101486.66;5059045;28;19958;-70
2023/06/30 08:04:57;;;;;;;;;;;;;;;24.05;48.01;101480.88;5059084;28;20170;-71
2023/06/30 08:07:23;;;;;;;;;;;;;;;24.00;47.27;101466.88;5045539;28;19921;-72
2023/06/30 08:09:48;;;;;;;;;;;;;;;23.57;48.91;101481.03;5057120;28;19944;-70
2023/06/30 08:12:14;;;;;;;;;;;;;;;23.89;49.13;101481.88;5059965;28;19919;-70
2023/06/30 08:14:39;;;;;;;;;;;;;;;23.78;47.85;101471.69;5057593;28;19912;-70
2023/06/30 08:17:05;;;;;;;;;;;;;;;23.87;48.81;101487.75;5062345;28;19935;-71
2023/06/30 08:19:30;;;;;;;;;;;;;;;23.39;49.12;101487.06;5060926;28;19982;-71
2023/06/30 08:21:55;;;;;;;;;;;;;;;23.06;50.40;101478.88;5054062;28;20299;-70
2023/06/30 08:24:21;;;;;;;;;;;;;;;23.02;50.75;101475.75;5056801;28;20072;-73
2023/06/30 08:26:46;;;;;;;;;;;;;;;23.01;51.73;101485.25;5064133;28;19924;-71
2023/06/30 08:29:11;;;;;;;;;;;;;;;22.97;51.61;101469.25;5058378;28;19913;-72
2023/06/30 08:31:36;;;;;;;;;;;;;;;23.06;52.05;101465.72;5043261;28;19912;-71
2023/06/30 08:34:02;;;;;;;;;;;;;;;22.96;52.83;101467.56;5061583;28;19966;-71
2023/06/30 08:36:27;;;;;;;;;;;;;;;23.29;53.30;101475.75;5057328;28;19924;-72
2023/06/30 08:38:52;;;;;;;;;;;;;;;23.14;51.61;101470.00;5060787;28;19913;-71
2023/06/30 08:41:18;;;;;;;;;;;;;;;23.15;51.61;101460.53;5059595;28;19913;-71
2023/06/30 08:43:44;;;;;;;;;;;;;;;23.37;53.15;101462.13;5055472;28;19924;-71
2023/06/30 08:46:10;;;;;;;;;;;;;;;23.34;50.75;101456.25;5058920;28;20287;-72
2023/06/30 08:48:36;;;;;;;;;;;;;;;23.29;51.34;101458.97;5058883;28;19920;-72
2023/06/30 08:51:02;;;;;;;;;;;;;;;23.34;51.39;101456.25;5059866;28;19916;-72
2023/06/30 08:53:28;;;;;;;;;;;;;;;23.23;50.35;101451.66;5056080;28;19912;-72
2023/06/30 08:55:56;;;;;;;;;;;;;;;23.14;51.27;101447.63;5037822;28;19919;-72
2023/06/30 08:58:21;;;;;;;;;;;;;;;22.96;50.97;101443.28;5059532;28;19960;-72
2023/06/30 09:00:46;;;;;;;;;;;;;;;22.84;51.32;101433.38;5039935;28;20412;-73
2023/06/30 09:03:12;;;;;;;;;;;;;;;23.50;50.61;101438.47;5053058;28;19925;-71
2023/06/30 09:05:39;;;;;;;;;;;;;;;23.81;49.14;101440.38;5050729;28;19912;-72
2023/06/30 09:08:10;;;;;;;;;;;;;;;23.78;49.84;101444.56;5058907;28;20331;-72
2023/06/30 09:10:37;;;;;;;;;;;;;;;23.38;49.94;101449.84;5057392;28;19995;-73
2023/06/30 09:13:03;;;;;;;;;;;;;;;23.00;51.10;101438.81;5059121;28;19912;-73
2023/06/30 09:15:29;;;;;;;;;;;;;;;23.05;51.45;101452.03;5060629;28;19913;-72
2023/06/30 09:17:54;;;;;;;;;;;;;;;23.41;49.14;101440.94;5040390;28;19913;-72
2023/06/30 09:20:22;;;;;;;;;;;;;;;23.62;48.69;101436.31;5060864;28;19917;-73
2023/06/30 09:22:48;;;;;;;;;;;;;;;23.59;47.83;101434.91;5049924;28;20324;-72
2023/06/30 09:25:25;;;;;;;;;;;;;;;23.17;49.69;101433.13;5046778;28;19966;-72
2023/06/30 09:27:50;;;;;;;;;;;;;;;23.81;48.34;101429.19;5033106;28;20011;-72
2023/06/30 09:30:17;;;;;;;;;;;;;;;24.29;47.17;101426.97;5049439;28;19929;-72
2023/06/30 09:32:42;;;;;;;;;;;;;;;24.10;47.63;101424.91;5054334;28;19975;-72
2023/06/30 09:35:08;;;;;;;;;;;;;;;23.87;46.34;101431.75;5044977;28;19920;-72
2023/06/30 09:37:43;;;;;;;;;;;;;;;24.29;45.30;101415.78;5049984;28;19995;-72
2023/06/30 09:40:13;;;;;;;;;;;;;;;24.52;45.01;101420.91;5052320;28;19920;-72
2023/06/30 09:42:40;;;;;;;;;;;;;;;24.59;44.00;101420.69;5054008;28;20331;-72
2023/06/30 09:45:05;;;;;;;;;;;;;;;24.49;44.37;101421.44;5052076;28;19948;-72
2023/06/30 09:47:30;;;;;;;;;;;;;;;24.36;44.14;101421.09;5035963;28;20031;-72
2023/06/30 09:49:56;;;;;;;;;;;;;;;24.25;45.54;101419.38;5051665;28;20303;-72
2023/06/30 09:52:27;;;;;;;;;;;;;;;24.14;45.57;101412.91;5051705;28;19952;-72
2023/06/30 09:54:54;;;;;;;;;;;;;;;24.04;44.85;101410.06;5048885;28;19912;-72
2023/06/30 09:57:19;;;;;;;;;;;;;;;24.51;43.30;101416.41;5053238;28;19996;-72
2023/06/30 09:59:47;;;;;;;;;;;;;;;24.85;43.46;101420.47;5055276;28;20383;-72
2023/06/30 10:02:13;;;;;;;;;;;;;;;24.35;44.58;101411.03;5053898;28;19942;-72
2023/06/30 10:04:39;;;;;;;;;;;;;;;24.33;46.09;101416.06;5050374;28;19924;-72
2023/06/30 10:07:05;;;;;;;;;;;;;;;24.22;46.53;101412.38;5055374;28;19997;-70
2023/06/30 10:09:31;;;;;;;;;;;;;;;24.68;45.47;101419.88;5047431;28;20284;-71
2023/06/30 10:11:57;;;;;;;;;;;;;;;24.01;44.26;101418.16;5045395;28;19913;-72
2023/06/30 10:14:27;;;;;;;;;;;;;;;24.11;45.87;101413.44;5042608;28;19924;-72
2023/06/30 10:16:53;;;;;;;;;;;;;;;23.93;46.29;101415.84;5044960;28;19916;-72
2023/06/30 10:19:19;;;;;;;;;;;;;;;23.69;48.00;101400.56;5060409;28;19935;-72
2023/06/30 10:21:44;;;;;;;;;;;;;;;23.66;47.99;101410.34;5057937;28;19916;-71
2023/06/30 10:24:10;;;;;;;;;;;;;;;23.67;46.30;101409.22;5053380;28;20022;-72
2023/06/30 10:26:36;;;;;;;;;;;;;;;23.88;46.75;101404.59;5055863;28;20412;-72
2023/06/30 10:29:02;;;;;;;;;;;;;;;23.67;45.68;101397.19;5053907;28;19924;-72
2023/06/30 10:31:28;;;;;;;;;;;;;;;23.59;46.97;101409.72;5054708;28;19946;-71
2023/06/30 10:33:54;;;;;;;;;;;;;;;23.48;47.49;101402.38;5040147;28;19916;-71
2023/06/30 10:36:19;;;;;;;;;;;;;;;23.33;46.42;101404.22;5054783;28;19921;-73
2023/06/30 10:38:46;;;;;;;;;;;;;;;23.20;46.82;101387.91;5057334;28;20359;-73
2023/06/30 10:41:12;;;;;;;;;;;;;;;23.29;47.68;101391.88;5027065;28;19931;-72
2023/06/30 10:43:56;;;;;;;;;;;;;;;23.44;46.82;101397.59;5049287;28;20013;-72
2023/06/30 10:46:22;;;;;;;;;;;;;;;23.67;46.69;101389.66;5056029;28;20047;-72
2023/06/30 10:48:47;;;;;;;;;;;;;;;24.23;45.02;101388.84;5055663;28;20007;-72
2023/06/30 10:51:12;;;;;;;;;;;;;;;24.31;43.19;101379.94;5035952;28;20030;-72
2023/06/30 10:53:41;;;;;;;;;;;;;;;23.62;44.64;101375.63;5058019;28;19962;-72
2023/06/30 10:56:08;;;;;;;;;;;;;;;23.33;45.11;101377.09;5048991;28;20014;-72
2023/06/30 10:58:39;;;;;;;;;;;;;;;23.40;45.34;101377.72;5053528;28;19912;-72
2023/06/30 11:01:05;;;;;;;;;;;;;;;23.66;45.91;101376.78;5049574;28;19913;-71
2023/06/30 11:04:03;;;;;;;;;;;;;;;23.93;44.97;101376.66;5046945;28;19947;-72
2023/06/30 11:06:28;;;;;;;;;;;;;;;23.89;44.60;101383.91;5051433;28;20311;-71
2023/06/30 11:09:00;;;;;;;;;;;;;;;23.60;44.59;101377.84;5037330;28;19962;-71
2023/06/30 11:11:28;;;;;;;;;;;;;;;23.90;44.03;101371.63;5054471;28;20384;-71
2023/06/30 11:14:06;;;;;;;;;;;;;;;24.53;43.51;101365.69;5057035;28;19963;-72
2023/06/30 11:16:50;;;;;;;;;;;;;;;24.35;44.02;101369.88;5038661;28;19966;-72
2023/06/30 11:19:24;;;;;;;;;;;;;;;25.00;43.56;101366.38;5053402;28;19919;-71
2023/06/30 11:22:08;;;;;;;;;;;;;;;24.95;42.64;101353.19;5021844;28;19913;-71
2023/06/30 11:24:34;;;;;;;;;;;;;;;24.67;43.24;101364.09;5059686;28;19920;-72
2023/06/30 11:27:00;;;;;;;;;;;;;;;24.34;44.14;101358.94;5058816;28;20254;-71
2023/06/30 11:29:25;;;;;;;;;;;;;;;24.14;44.12;101358.84;5063012;28;19913;-71
2023/06/30 11:31:51;;;;;;;;;;;;;;;23.92;44.45;101349.78;5063778;28;19912;-71
2023/06/30 11:34:17;;;;;;;;;;;;;;;24.15;44.97;101360.53;5055085;28;19924;-71
2023/06/30 11:36:42;;;;;;;;;;;;;;;24.80;42.68;101347.56;5061527;28;19920;-71
2023/06/30 11:39:07;;;;;;;;;;;;;;;24.53;44.42;101352.53;5059972;28;20375;-71
2023/06/30 11:41:33;;;;;;;;;;;;;;;24.67;43.40;101352.88;5062451;28;19931;-71
2023/06/30 11:43:58;;;;;;;;;;;;;;;25.33;43.11;101349.84;5059442;28;20283;-71
2023/06/30 11:46:24;;;;;;;;;;;;;;;25.73;41.77;101346.97;5055173;28;19916;-71
2023/06/30 11:48:50;;;;;;;;;;;;;;;25.29;41.69;101345.09;5054121;28;19916;-73
2023/06/30 11:51:16;;;;;;;;;;;;;;;25.69;42.15;101345.00;5062062;28;20264;-72
2023/06/30 11:53:48;;;;;;;;;;;;;;;25.45;41.80;101346.75;5057202;28;20303;-71
2023/06/30 11:56:13;;;;;;;;;;;;;;;25.34;42.96;101347.91;5061273;28;19912;-72
2023/06/30 11:58:43;;;;;;;;;;;;;;;25.05;42.58;101346.75;5060663;28;20287;-71
2023/06/30 12:01:08;;;;;;;;;;;;;;;24.92;42.99;101339.72;5058002;28;20561;-71
2023/06/30 12:03:33;;;;;;;;;;;;;;;24.39;44.72;101340.16;5054752;28;20458;-72
2023/06/30 12:05:59;;;;;;;;;;;;;;;24.39;44.77;101340.16;5063319;28;19912;-72
2023/06/30 12:08:28;;;;;;;;;;;;;;;24.96;43.71;101351.25;5051223;28;19927;-72
2023/06/30 12:10:55;;;;;;;;;;;;;;;25.11;43.25;101346.47;5057299;28;19935;-72
2023/06/30 12:13:20;;;;;;;;;;;;;;;24.96;43.87;101332.44;5054610;28;19916;-72
2023/06/30 12:15:46;;;;;;;;;;;;;;;24.79;43.16;101343.09;5062267;28;20299;-72
2023/06/30 12:18:12;;;;;;;;;;;;;;;24.95;42.24;101341.13;5061938;28;19912;-72
2023/06/30 12:20:38;;;;;;;;;;;;;;;24.99;42.23;101337.50;5060524;28;20434;-72
2023/06/30 12:23:04;;;;;;;;;;;;;;;24.96;42.04;101331.63;5054529;28;19916;-72
2023/06/30 12:25:30;;;;;;;;;;;;;;;25.40;41.58;101321.50;5049112;28;19913;-72
2023/06/30 12:27:55;;;;;;;;;;;;;;;25.65;40.98;101310.19;5052681;28;20334;-71